createdAt,value
2023-01-27T00:01:07.585Z,17.85
2023-01-27T00:03:35.096Z,24.65
2023-01-27T00:06:04.803Z,21.33
2023-01-27T00:08:32.182Z,19.23
2023-01-27T00:11:18.830Z,16.80
2023-01-27T00:13:46.193Z,16.33
2023-01-27T00:16:13.773Z,16.83
2023-01-27T00:18:41.338Z,16.17
2023-01-27T00:21:27.313Z,18.23
2023-01-27T00:24:13.338Z,17.38
2023-01-27T00:26:40.804Z,16.92
2023-01-27T00:29:09.361Z,17.70
2023-01-27T00:31:55.257Z,18.02
2023-01-27T00:34:22.635Z,19.23
2023-01-27T00:36:50.132Z,17.15
2023-01-27T00:39:17.523Z,14.40
2023-01-27T00:41:44.831Z,22.85
2023-01-27T00:44:13.529Z,15.13
2023-01-27T00:46:42.489Z,15.90
2023-01-27T00:49:10.842Z,20.65
2023-01-27T00:51:38.351Z,15.75
2023-01-27T00:54:05.855Z,13.90
2023-01-27T00:56:33.554Z,18.13
2023-01-27T00:59:01.176Z,16.88
2023-01-27T01:01:29.249Z,16.92
2023-01-27T01:03:58.876Z,17.73
2023-01-27T01:06:26.718Z,14.73
2023-01-27T01:08:56.918Z,17.50
2023-01-27T01:11:25.510Z,19.83
2023-01-27T01:13:55.610Z,15.65
2023-01-27T01:16:24.907Z,17.52
2023-01-27T01:18:52.299Z,16.60
2023-01-27T01:21:21.064Z,17.58
2023-01-27T01:23:48.513Z,16.80
2023-01-27T01:26:17.534Z,17.85
2023-01-27T01:28:45.779Z,16.52
2023-01-27T01:31:19.234Z,18.17
2023-01-27T01:33:47.900Z,16.42
2023-01-27T01:36:18.785Z,15.85
2023-01-27T01:38:46.957Z,14.90
2023-01-27T01:41:33.173Z,14.85
2023-01-27T01:44:21.614Z,17.33
2023-01-27T01:46:49.028Z,18.25
2023-01-27T01:49:19.121Z,17.00
2023-01-27T01:52:01.685Z,15.85
2023-01-27T01:54:52.604Z,19.23
2023-01-27T01:57:29.483Z,17.55
2023-01-27T02:00:02.040Z,15.73
2023-01-27T02:02:31.448Z,17.45
2023-01-27T02:05:06.302Z,16.10
2023-01-27T02:07:38.773Z,19.10
2023-01-27T02:10:06.479Z,16.00
2023-01-27T02:12:36.066Z,19.52
2023-01-27T02:15:05.947Z,17.75
2023-01-27T02:17:33.757Z,17.88
2023-01-27T02:20:12.287Z,17.13
2023-01-27T02:22:56.342Z,19.75
2023-01-27T02:25:32.749Z,17.25
2023-01-27T02:28:01.186Z,18.23
2023-01-27T02:30:28.990Z,18.20
2023-01-27T02:32:56.706Z,23.45
2023-01-27T02:35:34.868Z,19.58
2023-01-27T02:38:04.191Z,20.67
2023-01-27T02:40:33.310Z,19.23
2023-01-27T02:43:01.776Z,18.15
2023-01-27T02:45:29.257Z,19.83
2023-01-27T02:47:56.760Z,17.90
2023-01-27T02:50:24.517Z,19.25
2023-01-27T02:52:51.994Z,21.42
2023-01-27T02:55:19.371Z,17.75
2023-01-27T02:57:46.943Z,18.80
2023-01-27T03:00:33.651Z,16.27
2023-01-27T03:03:01.160Z,19.95
2023-01-27T03:05:28.709Z,20.52
2023-01-27T03:07:56.693Z,19.55
2023-01-27T03:10:24.144Z,20.10
2023-01-27T03:12:51.755Z,20.27
2023-01-27T03:15:37.964Z,19.67
2023-01-27T03:18:17.985Z,19.35
2023-01-27T03:20:47.794Z,22.92
2023-01-27T03:23:18.072Z,18.08
2023-01-27T03:25:49.852Z,18.08
2023-01-27T03:28:17.441Z,19.08
2023-01-27T03:31:02.479Z,19.10
2023-01-27T03:33:43.160Z,18.67
2023-01-27T03:36:47.550Z,17.42
2023-01-27T03:39:33.624Z,19.38
2023-01-27T03:42:19.558Z,20.13
2023-01-27T03:45:06.282Z,20.05
2023-01-27T03:47:33.694Z,18.05
2023-01-27T03:50:01.199Z,18.52
2023-01-27T03:52:28.681Z,17.35
2023-01-27T03:54:56.284Z,18.98
2023-01-27T03:57:23.822Z,16.73
2023-01-27T03:59:51.295Z,17.30
2023-01-27T04:02:38.216Z,18.60
2023-01-27T04:05:24.743Z,19.45
2023-01-27T04:07:52.235Z,16.67
2023-01-27T04:10:19.671Z,17.92
2023-01-27T04:12:48.738Z,17.52
2023-01-27T04:15:17.489Z,17.48
2023-01-27T04:17:46.952Z,18.17
2023-01-27T04:20:14.605Z,18.55
2023-01-27T04:22:42.204Z,16.67
2023-01-27T04:25:12.169Z,19.02
2023-01-27T04:27:40.504Z,17.52
2023-01-27T04:30:08.602Z,15.95
2023-01-27T04:32:36.035Z,14.60
2023-01-27T04:35:03.744Z,17.88
2023-01-27T04:37:31.697Z,15.57
2023-01-27T04:39:59.132Z,15.90
2023-01-27T04:42:26.695Z,14.10
2023-01-27T04:44:54.136Z,18.42
2023-01-27T04:47:21.691Z,14.85
2023-01-27T04:49:49.148Z,13.35
2023-01-27T04:52:16.615Z,13.57
2023-01-27T04:54:44.066Z,13.40
2023-01-27T04:57:11.757Z,16.67
2023-01-27T04:59:39.204Z,13.68
2023-01-27T05:02:07.004Z,16.33
2023-01-27T05:04:34.515Z,17.63
2023-01-27T05:07:02.513Z,13.90
2023-01-27T05:09:29.910Z,14.95
2023-01-27T05:11:57.523Z,15.13
2023-01-27T05:14:26.161Z,14.52
2023-01-27T05:16:53.632Z,14.45
2023-01-27T05:19:21.107Z,16.65
2023-01-27T05:21:48.531Z,15.60
2023-01-27T05:24:16.083Z,16.83
2023-01-27T05:26:43.606Z,15.20
2023-01-27T05:29:11.005Z,15.55
2023-01-27T05:31:38.693Z,16.92
2023-01-27T05:34:06.178Z,16.95
2023-01-27T05:36:33.659Z,16.23
2023-01-27T05:39:01.071Z,18.92
2023-01-27T05:41:32.801Z,17.05
2023-01-27T05:44:00.447Z,13.00
2023-01-27T05:46:30.311Z,15.50
2023-01-27T05:49:00.846Z,13.27
2023-01-27T05:51:33.639Z,17.05
2023-01-27T05:54:01.259Z,16.88
2023-01-27T05:56:28.832Z,12.35
2023-01-27T05:58:58.140Z,16.33
2023-01-27T06:01:29.824Z,14.20
2023-01-27T06:03:57.769Z,17.70
2023-01-27T06:06:28.159Z,14.13
2023-01-27T06:08:55.651Z,15.77
2023-01-27T06:11:24.902Z,15.43
2023-01-27T06:13:53.626Z,14.85
2023-01-27T06:16:22.886Z,13.57
2023-01-27T06:18:51.120Z,13.25
2023-01-27T06:21:20.570Z,14.65
2023-01-27T06:23:48.809Z,17.55
2023-01-27T06:26:18.183Z,15.13
2023-01-27T06:28:45.830Z,15.60
2023-01-27T06:31:16.452Z,14.52
2023-01-27T06:33:44.500Z,14.20
2023-01-27T06:36:14.676Z,13.32
2023-01-27T06:38:42.917Z,16.05
2023-01-27T06:41:10.743Z,13.77
2023-01-27T06:43:38.356Z,16.50
2023-01-27T06:46:06.316Z,17.05
2023-01-27T06:48:34.306Z,13.80
2023-01-27T06:51:01.785Z,15.40
2023-01-27T06:53:29.445Z,16.17
2023-01-27T06:55:59.030Z,14.30
2023-01-27T06:58:27.500Z,12.50
2023-01-27T07:00:56.174Z,15.48
2023-01-27T07:03:24.239Z,13.30
2023-01-27T07:05:53.267Z,11.95
2023-01-27T07:08:21.041Z,15.50
2023-01-27T07:10:48.528Z,14.82
2023-01-27T07:13:16.117Z,14.30
2023-01-27T07:15:43.743Z,17.30
2023-01-27T07:18:14.278Z,15.55
2023-01-27T07:20:42.146Z,16.13
2023-01-27T07:23:10.298Z,17.30
2023-01-27T07:25:38.205Z,15.50
2023-01-27T07:28:06.514Z,15.38
2023-01-27T07:30:38.959Z,13.30
2023-01-27T07:33:08.183Z,16.05
2023-01-27T07:35:37.064Z,16.38
2023-01-27T07:38:06.349Z,13.65
2023-01-27T07:40:34.156Z,14.38
2023-01-27T07:43:02.362Z,13.60
2023-01-27T07:45:30.327Z,14.45
2023-01-27T07:48:05.543Z,13.00
2023-01-27T07:50:33.768Z,15.13
2023-01-27T07:53:02.324Z,15.35
2023-01-27T07:55:31.013Z,14.70
2023-01-27T07:57:58.896Z,17.80
2023-01-27T08:00:26.621Z,15.73
2023-01-27T08:02:55.347Z,15.25
2023-01-27T08:05:23.371Z,16.95
2023-01-27T08:07:52.228Z,20.48
2023-01-27T08:10:19.827Z,14.80
2023-01-27T08:12:47.518Z,19.10
2023-01-27T08:15:18.653Z,17.77
2023-01-27T08:17:54.456Z,13.95
2023-01-27T08:20:23.168Z,16.38
2023-01-27T08:22:50.839Z,15.38
2023-01-27T08:25:18.673Z,14.35
2023-01-27T08:27:49.992Z,14.68
2023-01-27T08:30:18.087Z,13.65
2023-01-27T08:32:45.770Z,13.82
2023-01-27T08:35:13.343Z,17.10
2023-01-27T08:37:40.985Z,13.30
2023-01-27T08:40:09.326Z,13.30
2023-01-27T08:43:04.738Z,14.23
2023-01-27T08:45:32.827Z,13.45
2023-01-27T08:48:00.478Z,16.45
2023-01-27T08:50:29.593Z,14.02
2023-01-27T08:53:00.785Z,16.58
2023-01-27T08:55:29.295Z,15.30
2023-01-27T08:57:56.919Z,19.05
2023-01-27T09:00:24.799Z,17.02
2023-01-27T09:02:52.555Z,14.25
2023-01-27T09:05:21.504Z,12.77
2023-01-27T09:07:49.500Z,14.25
2023-01-27T09:10:17.702Z,15.55
2023-01-27T09:12:46.016Z,15.90
2023-01-27T09:15:14.955Z,16.92
2023-01-27T09:17:42.660Z,14.20
2023-01-27T09:20:11.275Z,14.20
2023-01-27T09:22:40.592Z,14.13
2023-01-27T09:25:12.407Z,13.98
2023-01-27T09:27:40.497Z,12.82
2023-01-27T09:30:11.010Z,15.02
2023-01-27T09:32:38.946Z,13.57
2023-01-27T09:35:07.233Z,13.68
2023-01-27T09:37:41.997Z,14.75
2023-01-27T09:40:24.578Z,17.73
2023-01-27T09:43:01.191Z,14.55
2023-01-27T09:46:08.581Z,13.70
2023-01-27T09:48:54.371Z,14.18
2023-01-27T09:52:03.082Z,14.73
2023-01-27T09:54:48.912Z,19.05
2023-01-27T09:57:34.377Z,13.65
2023-01-27T10:00:35.278Z,13.88
2023-01-27T10:03:27.315Z,16.90
2023-01-27T10:06:22.891Z,12.05
2023-01-27T10:09:20.998Z,12.23
2023-01-27T10:12:17.725Z,12.73
2023-01-27T10:15:05.765Z,13.77
2023-01-27T10:17:47.250Z,12.75
2023-01-27T10:20:25.327Z,11.68
2023-01-27T10:23:08.069Z,13.20
2023-01-27T10:26:08.576Z,14.35
2023-01-27T10:28:38.043Z,12.27
2023-01-27T10:31:16.083Z,11.80
2023-01-27T10:33:52.823Z,11.73
2023-01-27T10:36:34.761Z,12.18
2023-01-27T10:39:36.057Z,12.88
2023-01-27T10:42:18.721Z,12.73
2023-01-27T10:45:28.832Z,11.52
2023-01-27T10:48:02.260Z,12.52
2023-01-27T10:50:36.559Z,14.82
2023-01-27T10:53:13.125Z,13.13
2023-01-27T10:56:04.308Z,12.65
2023-01-27T10:58:38.397Z,13.73
2023-01-27T11:01:23.965Z,11.85
2023-01-27T11:04:02.060Z,12.27
2023-01-27T11:06:37.728Z,11.18
2023-01-27T11:09:29.379Z,8.80
2023-01-27T11:12:02.879Z,11.93
2023-01-27T11:14:45.234Z,12.00
2023-01-27T11:17:37.243Z,12.85
2023-01-27T11:20:23.443Z,10.50
2023-01-27T11:22:56.968Z,11.00
2023-01-27T11:26:06.227Z,11.38
2023-01-27T11:28:42.460Z,11.70
2023-01-27T11:31:14.270Z,11.80
2023-01-27T11:34:03.074Z,11.40
2023-01-27T11:36:31.067Z,12.07
2023-01-27T11:38:59.275Z,12.48
2023-01-27T11:41:26.781Z,10.93
2023-01-27T11:43:54.540Z,10.52
2023-01-27T11:46:24.340Z,11.32
2023-01-27T11:48:57.553Z,10.00
2023-01-27T11:51:30.789Z,12.10
2023-01-27T11:54:12.990Z,11.82
2023-01-27T11:56:44.050Z,12.68
2023-01-27T11:59:39.940Z,12.15
2023-01-27T12:02:07.303Z,12.93
2023-01-27T12:04:35.079Z,13.80
2023-01-27T12:07:17.583Z,12.55
2023-01-27T12:09:45.241Z,11.23
2023-01-27T12:12:15.891Z,12.13
2023-01-27T12:14:55.109Z,12.73
2023-01-27T12:17:27.952Z,11.43
2023-01-27T12:19:59.455Z,11.10
2023-01-27T12:22:32.598Z,12.27
2023-01-27T12:25:05.194Z,13.73
2023-01-27T12:27:58.974Z,13.80
2023-01-27T12:30:29.454Z,12.63
2023-01-27T12:32:58.868Z,11.80
2023-01-27T12:35:30.731Z,12.80
2023-01-27T12:38:05.196Z,12.52
2023-01-27T12:40:33.814Z,15.48
2023-01-27T12:43:13.515Z,15.38
2023-01-27T12:45:43.685Z,13.82
2023-01-27T12:48:14.544Z,11.65
2023-01-27T12:50:43.083Z,12.48
2023-01-27T12:53:27.602Z,12.48
2023-01-27T12:56:04.507Z,13.60
2023-01-27T12:58:45.527Z,11.93
2023-01-27T13:01:32.086Z,14.48
2023-01-27T13:04:03.387Z,14.25
2023-01-27T13:06:37.092Z,14.13
2023-01-27T13:09:04.967Z,15.00
2023-01-27T13:11:40.915Z,12.65
2023-01-27T13:14:16.776Z,12.23
2023-01-27T13:16:55.236Z,13.98
2023-01-27T13:19:41.704Z,13.32
2023-01-27T13:22:17.308Z,13.45
2023-01-27T13:24:50.233Z,13.68
2023-01-27T13:27:22.024Z,14.32
2023-01-27T13:30:02.701Z,12.80
2023-01-27T13:32:35.484Z,12.10
2023-01-27T13:35:26.493Z,13.45
2023-01-27T13:38:15.576Z,13.30
2023-01-27T13:40:45.678Z,13.65
2023-01-27T13:43:36.211Z,15.32
2023-01-27T13:46:21.517Z,13.82
2023-01-27T13:48:54.562Z,14.77
2023-01-27T13:51:30.401Z,14.27
2023-01-27T13:54:02.923Z,14.27
2023-01-27T13:56:45.605Z,16.00
2023-01-27T13:59:29.055Z,16.77
2023-01-27T14:02:22.543Z,20.17
2023-01-27T14:05:28.193Z,21.85
2023-01-27T14:08:10.316Z,17.52
2023-01-27T14:13:40.287Z,19.08
2023-01-27T14:16:17.043Z,17.38
2023-01-27T14:19:00.742Z,16.83
2023-01-27T14:21:47.602Z,17.85
2023-01-27T14:24:27.475Z,16.17
2023-01-27T14:27:08.203Z,17.50
2023-01-27T14:29:54.187Z,21.35
2023-01-27T14:32:36.081Z,22.20
2023-01-27T14:35:43.127Z,16.13
2023-01-27T14:38:32.553Z,18.98
2023-01-27T14:41:40.234Z,16.63
2023-01-27T14:44:38.398Z,17.02
2023-01-27T14:47:24.178Z,20.52
2023-01-27T14:49:54.651Z,20.52
2023-01-27T14:52:29.227Z,23.50
2023-01-27T14:55:21.638Z,19.48
2023-01-27T14:57:55.778Z,18.20
2023-01-27T15:01:03.980Z,20.95
2023-01-27T15:04:06.205Z,22.63
2023-01-27T15:06:33.519Z,17.10
2023-01-27T15:09:33.349Z,19.55
2023-01-27T15:12:25.536Z,21.27
2023-01-27T15:15:30.821Z,18.45
2023-01-27T15:18:09.145Z,24.00
2023-01-27T15:21:09.014Z,19.80
2023-01-27T15:23:55.229Z,19.75
2023-01-27T15:26:25.593Z,16.58
2023-01-27T15:28:53.962Z,19.45
2023-01-27T15:31:25.928Z,22.67
2023-01-27T15:34:20.233Z,22.65
2023-01-27T15:37:20.203Z,22.95
2023-01-27T15:40:16.420Z,22.17
2023-01-27T15:43:02.016Z,28.50
2023-01-27T15:45:37.384Z,38.92
2023-01-27T15:48:22.519Z,68.28
2023-01-27T15:51:01.723Z,49.78
2023-01-27T15:53:35.316Z,33.42
2023-01-27T15:56:04.005Z,48.00
2023-01-27T15:58:40.696Z,42.00
2023-01-27T16:01:29.078Z,34.75
2023-01-27T16:04:17.626Z,25.95
2023-01-27T16:07:02.000Z,26.27
2023-01-27T16:09:43.164Z,26.48
2023-01-27T16:12:20.142Z,24.88
2023-01-27T16:14:47.924Z,26.33
2023-01-27T16:17:20.320Z,24.27
2023-01-27T16:20:19.977Z,24.30
2023-01-27T16:22:58.512Z,18.55
2023-01-27T16:26:15.485Z,24.60
2023-01-27T16:28:46.880Z,24.10
2023-01-27T16:31:19.480Z,22.30
2023-01-27T16:33:51.761Z,21.55
2023-01-27T16:36:32.088Z,20.23
2023-01-27T16:39:18.595Z,21.70
2023-01-27T16:41:53.602Z,25.75
2023-01-27T16:44:25.968Z,21.17
2023-01-27T16:47:14.931Z,23.92
2023-01-27T16:49:44.799Z,26.63
2023-01-27T16:52:35.903Z,33.55
2023-01-27T16:55:20.071Z,35.47
2023-01-27T16:57:47.656Z,36.15
2023-01-27T17:00:21.855Z,39.50
2023-01-27T17:02:51.792Z,30.27
2023-01-27T17:05:20.698Z,29.95
2023-01-27T17:08:16.338Z,29.40
2023-01-27T17:11:04.050Z,28.65
2023-01-27T17:13:46.275Z,22.13
2023-01-27T17:16:22.319Z,25.40
2023-01-27T17:18:52.863Z,27.70
2023-01-27T17:21:31.027Z,24.20
2023-01-27T17:24:14.611Z,25.77
2023-01-27T17:26:49.580Z,22.30
2023-01-27T17:29:21.500Z,23.90
2023-01-27T17:34:19.874Z,26.08
2023-01-27T17:37:07.059Z,24.38
2023-01-27T17:39:37.551Z,23.42
2023-01-27T17:42:05.847Z,25.08
2023-01-27T17:44:33.522Z,23.85
2023-01-27T17:47:02.113Z,26.85
2023-01-27T17:49:31.135Z,27.65
2023-01-27T17:52:00.248Z,33.08
2023-01-27T17:54:41.626Z,27.83
2023-01-27T17:57:16.210Z,29.88
2023-01-27T17:59:46.910Z,31.67
2023-01-27T18:02:26.593Z,29.77
2023-01-27T18:04:57.259Z,28.55
2023-01-27T18:07:24.958Z,33.25
2023-01-27T18:09:54.527Z,28.42
2023-01-27T18:12:34.127Z,24.95
2023-01-27T18:15:32.621Z,25.92
2023-01-27T18:18:01.756Z,29.35
2023-01-27T18:20:34.443Z,28.05
2023-01-27T18:23:12.744Z,28.52
2023-01-27T18:25:53.792Z,30.58
2023-01-27T18:28:21.201Z,31.13
2023-01-27T18:30:50.945Z,29.65
2023-01-27T18:33:18.480Z,30.58
2023-01-27T18:35:57.268Z,35.25
2023-01-27T18:38:27.057Z,34.75
2023-01-27T18:40:55.819Z,30.45
2023-01-27T18:43:41.635Z,32.00
2023-01-27T18:46:10.410Z,32.63
2023-01-27T18:48:39.887Z,37.15
2023-01-27T18:51:13.874Z,28.65
2023-01-27T18:53:42.066Z,38.65
2023-01-27T18:56:09.807Z,31.05
2023-01-27T18:58:38.357Z,29.35
2023-01-27T19:01:15.994Z,29.27
2023-01-27T19:03:43.444Z,32.53
2023-01-27T19:06:16.543Z,31.38
2023-01-27T19:08:44.703Z,27.08
2023-01-27T19:11:16.244Z,33.53
2023-01-27T19:13:44.811Z,28.65
2023-01-27T19:16:16.029Z,31.40
2023-01-27T19:18:45.155Z,39.03
2023-01-27T19:21:14.150Z,31.67
2023-01-27T19:23:46.081Z,30.20
2023-01-27T19:26:22.056Z,30.73
2023-01-27T19:28:54.017Z,27.27
2023-01-27T19:31:22.022Z,27.55
2023-01-27T19:33:50.028Z,29.15
2023-01-27T19:36:17.307Z,27.80
2023-01-27T19:38:44.769Z,35.22
2023-01-27T19:41:12.527Z,29.77
2023-01-27T19:43:41.253Z,31.27
2023-01-27T19:46:18.358Z,28.52
2023-01-27T19:48:45.939Z,29.83
2023-01-27T19:51:13.379Z,32.42
2023-01-27T19:53:41.170Z,34.17
2023-01-27T19:56:15.970Z,28.85
2023-01-27T19:58:47.111Z,27.05
2023-01-27T20:01:14.575Z,34.73
2023-01-27T20:03:41.946Z,30.35
2023-01-27T20:06:16.115Z,33.33
2023-01-27T20:08:43.955Z,30.90
2023-01-27T20:11:29.791Z,32.10
2023-01-27T20:13:57.579Z,30.88
2023-01-27T20:16:25.724Z,28.48
2023-01-27T20:18:53.957Z,30.27
2023-01-27T20:21:21.454Z,32.65
2023-01-27T20:23:49.268Z,32.63
2023-01-27T20:26:18.197Z,29.30
2023-01-27T20:28:47.193Z,35.25
2023-01-27T20:31:17.695Z,30.98
2023-01-27T20:33:49.812Z,36.63
2023-01-27T20:36:20.565Z,36.13
2023-01-27T20:38:48.561Z,37.40
2023-01-27T20:41:18.876Z,32.35
2023-01-27T20:43:46.957Z,32.55
2023-01-27T20:46:17.522Z,34.38
2023-01-27T20:48:44.898Z,31.45
2023-01-27T20:51:14.413Z,31.55
2023-01-27T20:53:45.903Z,32.20
2023-01-27T20:56:16.213Z,28.17
2023-01-27T20:58:44.463Z,33.08
2023-01-27T21:01:17.658Z,33.47
2023-01-27T21:03:45.721Z,32.53
2023-01-27T21:06:15.736Z,37.78
2023-01-27T21:08:43.785Z,33.90
2023-01-27T21:11:12.975Z,38.28
2023-01-27T21:13:40.520Z,31.08
2023-01-27T21:16:08.466Z,31.25
2023-01-27T21:18:36.587Z,31.23
2023-01-27T21:21:04.779Z,32.83
2023-01-27T21:23:33.820Z,37.17
2023-01-27T21:26:06.310Z,32.83
2023-01-27T21:28:34.046Z,35.25
2023-01-27T21:31:16.203Z,30.80
2023-01-27T21:33:51.073Z,31.95
2023-01-27T21:36:19.268Z,36.80
2023-01-27T21:38:50.317Z,33.53
2023-01-27T21:41:37.387Z,31.02
2023-01-27T21:44:25.120Z,32.53
2023-01-27T21:46:52.679Z,31.13
2023-01-27T21:49:20.156Z,30.85
2023-01-27T21:51:49.893Z,29.23
2023-01-27T21:54:17.630Z,39.10
2023-01-27T21:56:45.088Z,36.35
2023-01-27T21:59:12.575Z,32.97
2023-01-27T22:01:40.021Z,31.80
2023-01-27T22:04:07.490Z,34.33
2023-01-27T22:06:36.956Z,36.25
2023-01-27T22:09:04.523Z,30.27
2023-01-27T22:11:32.012Z,32.08
2023-01-27T22:13:59.361Z,31.80
2023-01-27T22:16:26.717Z,29.73
2023-01-27T22:18:54.176Z,25.73
2023-01-27T22:21:21.481Z,30.10
2023-01-27T22:23:48.803Z,29.00
2023-01-27T22:26:16.162Z,28.02
2023-01-27T22:28:44.064Z,28.23
2023-01-27T22:31:11.563Z,31.17
2023-01-27T22:33:38.908Z,29.13
2023-01-27T22:36:07.286Z,27.35
2023-01-27T22:38:38.907Z,31.27
2023-01-27T22:41:06.495Z,29.38
2023-01-27T22:43:33.929Z,28.77
2023-01-27T22:46:02.553Z,36.35
2023-01-27T22:48:30.567Z,30.25
2023-01-27T22:51:03.774Z,32.15
2023-01-27T22:53:31.771Z,32.78
2023-01-27T22:56:00.950Z,30.08
2023-01-27T22:58:29.522Z,30.52
2023-01-27T23:00:57.101Z,33.13
2023-01-27T23:03:24.603Z,27.13
2023-01-27T23:05:52.115Z,25.58
2023-01-27T23:08:20.716Z,25.70
2023-01-27T23:10:49.292Z,29.52
2023-01-27T23:13:16.688Z,27.83
2023-01-27T23:15:44.051Z,24.30
2023-01-27T23:18:11.604Z,28.60
2023-01-27T23:20:40.230Z,28.23
2023-01-27T23:23:09.251Z,22.73
2023-01-27T23:25:41.928Z,25.27
2023-01-27T23:28:09.239Z,26.30
2023-01-27T23:30:36.710Z,23.90
2023-01-27T23:33:04.085Z,23.90
2023-01-27T23:35:31.424Z,21.15
2023-01-27T23:37:58.722Z,25.42
2023-01-27T23:40:26.217Z,29.10
2023-01-27T23:42:53.530Z,23.17
2023-01-27T23:45:20.911Z,24.98
2023-01-27T23:47:48.252Z,24.65
2023-01-27T23:50:15.880Z,24.83
2023-01-27T23:52:43.224Z,23.05
2023-01-27T23:55:12.848Z,24.58
2023-01-27T23:57:40.846Z,22.38
